Time;durP1;ratioP1;P1;durP2;ratioP2;P2;SDS_P1;SDS_P2;PMS_P1;PMS_P2;Temp;Humidity;BMP_temperature;BMP_pressure;BME280_temperature;BME280_humidity;BME280_pressure;Samples;Min_cycle;Max_cycle;Signal;HPM_P1;HPM_P2
2023/09/11 00:01:54;;;;;;;0.47;0.37;;;;;;;18.73;60.22;99880.03;4440823;32;20133;-84
2023/09/11 00:04:21;;;;;;;0.17;0.17;;;;;;;18.76;60.22;99879.00;4427884;32;20385;-85
2023/09/11 00:06:46;;;;;;;0.20;0.17;;;;;;;18.81;60.22;99872.47;4419662;32;20089;-86
2023/09/11 00:09:12;;;;;;;3.53;2.28;;;;;;;18.62;60.22;99874.56;4439013;32;20158;-85
2023/09/11 00:11:37;;;;;;;0.20;0.20;;;;;;;18.58;60.20;99875.69;4427859;32;20125;-86
2023/09/11 00:14:03;;;;;;;1.12;1.02;;;;;;;18.57;60.20;99871.37;4427999;32;20093;-85
2023/09/11 00:16:28;;;;;;;0.00;0.00;;;;;;;18.32;60.20;99866.78;4428127;32;20105;-85
2023/09/11 00:18:56;;;;;;;0.00;0.00;;;;;;;18.45;60.20;99865.06;4439914;32;20145;-85
2023/09/11 00:21:22;;;;;;;0.47;0.47;;;;;;;18.61;60.21;99860.53;4440524;32;20085;-85
2023/09/11 00:23:47;;;;;;;0.82;0.52;;;;;;;18.55;60.21;99866.19;4440523;32;20097;-85
2023/09/11 00:26:13;;;;;;;0.10;0.10;;;;;;;18.64;60.21;99868.28;4427893;32;20569;-85
2023/09/11 00:28:38;;;;;;;0.77;0.77;;;;;;;18.54;60.19;99858.38;4440453;32;20402;-85
2023/09/11 00:31:04;;;;;;;0.20;0.20;;;;;;;18.55;60.20;99854.81;4427530;32;23268;-85
2023/09/11 00:33:29;;;;;;;0.25;0.25;;;;;;;18.53;60.19;99861.97;4454570;32;20132;-85
2023/09/11 00:35:54;;;;;;;0.88;0.60;;;;;;;18.68;60.20;99858.38;4427211;32;25791;-85
2023/09/11 00:38:20;;;;;;;1.17;0.30;;;;;;;18.58;60.21;99852.81;4440569;32;20406;-86
2023/09/11 00:40:45;;;;;;;0.57;0.32;;;;;;;18.76;60.21;99852.62;4440482;32;20192;-86
2023/09/11 00:43:10;;;;;;;0.35;0.35;;;;;;;18.82;60.22;99857.50;4440021;32;20116;-85
2023/09/11 00:45:36;;;;;;;0.32;0.32;;;;;;;18.84;60.21;99848.53;4445383;32;20148;-85
2023/09/11 00:48:03;;;;;;;0.00;0.00;;;;;;;18.91;60.22;99847.19;4435156;32;20154;-85
2023/09/11 00:50:28;;;;;;;1.08;0.45;;;;;;;18.66;60.21;99855.84;4433315;32;20115;-85
2023/09/11 00:52:54;;;;;;;0.52;0.37;;;;;;;18.56;60.21;99846.78;4428450;32;20109;-85
2023/09/11 00:55:19;;;;;;;0.45;0.20;;;;;;;18.89;60.22;99853.50;4428453;32;20249;-86
2023/09/11 00:57:45;;;;;;;0.73;0.73;;;;;;;18.79;60.22;99848.00;4426717;32;30944;-86
2023/09/11 01:00:11;;;;;;;0.37;0.35;;;;;;;18.66;60.20;99841.81;4424909;32;20234;-85
2023/09/11 01:02:36;;;;;;;3.03;0.65;;;;;;;18.47;60.20;99831.56;4437760;32;20116;-86
2023/09/11 01:05:04;;;;;;;0.40;0.40;;;;;;;18.59;60.20;99836.03;4445486;32;20124;-85
2023/09/11 01:07:29;;;;;;;0.10;0.10;;;;;;;18.48;60.20;99843.81;4415275;32;20123;-85
2023/09/11 01:09:55;;;;;;;0.10;0.10;;;;;;;18.57;60.20;99842.38;4427685;32;20105;-86
2023/09/11 01:12:20;;;;;;;1.55;0.88;;;;;;;18.42;60.19;99847.66;4427590;32;20100;-85
2023/09/11 01:14:45;;;;;;;0.95;0.60;;;;;;;18.40;60.19;99849.53;4414826;32;20183;-85
2023/09/11 01:17:37;;;;;;;0.60;0.60;;;;;;;18.28;60.18;99844.19;4414376;32;20120;-86
2023/09/11 01:20:33;;;;;;;0.10;0.10;;;;;;;18.55;60.21;99849.53;4431159;32;20114;-85
2023/09/11 01:23:13;;;;;;;0.40;0.30;;;;;;;18.46;60.20;99845.69;4454610;32;20149;-86
2023/09/11 01:26:17;;;;;;;0.10;0.10;;;;;;;18.19;60.18;99847.38;4454374;32;20089;-85
2023/09/11 01:29:04;;;;;;;0.75;0.52;;;;;;;18.05;60.17;99843.00;4449884;32;20366;-85
2023/09/11 01:31:34;;;;;;;1.85;0.95;;;;;;;17.99;60.17;99848.63;4440373;32;20558;-85
2023/09/11 01:34:00;;;;;;;0.20;0.20;;;;;;;17.98;60.17;99846.91;4427835;32;20077;-85
2023/09/11 01:36:25;;;;;;;0.20;0.20;;;;;;;17.94;60.17;99845.41;4413169;32;20131;-87
2023/09/11 01:38:51;;;;;;;0.13;0.13;;;;;;;17.89;60.16;99839.56;4427480;32;20644;-86
2023/09/11 01:41:16;;;;;;;1.35;0.70;;;;;;;17.94;60.17;99843.63;4427685;32;20162;-87
2023/09/11 01:43:41;;;;;;;0.88;0.80;;;;;;;18.13;60.18;99838.09;4427096;32;20716;-86
2023/09/11 01:46:07;;;;;;;1.00;0.60;;;;;;;17.95;60.17;99842.69;4414140;32;20122;-87
2023/09/11 01:48:32;;;;;;;0.45;0.45;;;;;;;17.86;60.17;99847.66;4427138;32;20097;-86
2023/09/11 01:50:58;;;;;;;0.05;0.05;;;;;;;17.80;60.16;99843.63;4426296;32;31591;-86
2023/09/11 01:53:23;;;;;;;0.17;0.17;;;;;;;17.83;60.16;99843.44;4427307;32;20119;-86
2023/09/11 01:55:49;;;;;;;0.22;0.22;;;;;;;17.93;60.17;99844.56;4413551;32;21665;-85
2023/09/11 01:58:14;;;;;;;1.65;0.88;;;;;;;17.94;60.17;99843.63;4427159;32;20466;-87
2023/09/11 02:00:39;;;;;;;0.40;0.40;;;;;;;17.77;60.16;99841.19;4424240;32;20105;-86
2023/09/11 02:03:05;;;;;;;0.10;0.10;;;;;;;17.81;60.16;99840.06;4424550;32;20109;-86
2023/09/11 02:05:30;;;;;;;0.00;0.00;;;;;;;18.02;60.17;99838.75;4424491;32;20090;-86
2023/09/11 02:07:56;;;;;;;0.60;0.40;;;;;;;17.84;60.17;99836.38;4424522;32;20137;-86
2023/09/11 02:10:22;;;;;;;0.00;0.00;;;;;;;17.73;60.16;99839.66;4414500;32;20093;-87
2023/09/11 02:12:47;;;;;;;0.10;0.10;;;;;;;17.86;60.16;99839.78;4424036;32;35457;-86
2023/09/11 02:15:13;;;;;;;0.30;0.30;;;;;;;17.81;60.16;99842.69;4427114;32;20728;-87
2023/09/11 02:17:38;;;;;;;0.10;0.10;;;;;;;17.67;60.15;99837.34;4437343;32;20279;-87
2023/09/11 02:20:04;;;;;;;1.87;1.30;;;;;;;17.59;60.15;99842.25;4413992;32;20812;-86
2023/09/11 02:22:30;;;;;;;0.62;0.62;;;;;;;17.66;60.15;99843.56;4424823;32;20106;-86
2023/09/11 02:24:55;;;;;;;0.20;0.20;;;;;;;17.68;60.15;99845.19;4423963;32;20201;-86
2023/09/11 02:27:20;;;;;;;0.32;0.17;;;;;;;17.67;60.15;99845.25;4437357;32;20121;-86
2023/09/11 02:29:46;;;;;;;0.75;0.75;;;;;;;17.61;60.16;99843.84;4437420;32;20437;-85
2023/09/11 02:32:11;;;;;;;0.50;0.50;;;;;;;17.74;60.16;99841.34;4438801;32;20145;-85
2023/09/11 02:34:37;;;;;;;0.50;0.47;;;;;;;17.57;60.15;99841.50;4423256;32;30829;-86
2023/09/11 02:37:02;;;;;;;0.65;0.65;;;;;;;17.52;60.14;99846.19;4422434;32;20093;-86
2023/09/11 02:39:28;;;;;;;0.40;0.40;;;;;;;17.55;60.15;99843.38;4433278;32;20139;-86
2023/09/11 02:41:53;;;;;;;0.20;0.20;;;;;;;17.55;60.15;99844.22;4419690;32;20152;-87
2023/09/11 02:44:19;;;;;;;2.12;0.88;;;;;;;17.40;60.14;99838.06;4435485;32;34948;-86
2023/09/11 02:46:44;;;;;;;0.60;0.60;;;;;;;17.69;60.15;99838.12;4410983;32;20142;-86
2023/09/11 02:49:10;;;;;;;0.20;0.20;;;;;;;17.52;60.15;99839.13;4423990;32;20141;-86
2023/09/11 02:51:35;;;;;;;0.70;0.70;;;;;;;17.42;60.14;99840.59;4431310;32;20216;-86
2023/09/11 02:54:00;;;;;;;1.65;0.40;;;;;;;17.70;60.16;99838.03;4443294;32;27966;-86
2023/09/11 02:56:26;;;;;;;0.10;0.10;;;;;;;17.45;60.13;99841.25;4420687;32;20177;-86
2023/09/11 02:58:51;;;;;;;1.02;0.93;;;;;;;17.35;60.14;99840.13;4436245;32;20393;-86
2023/09/11 03:01:17;;;;;;;0.60;0.60;;;;;;;17.35;60.13;99844.53;4421348;32;20111;-85
2023/09/11 03:03:42;;;;;;;0.68;0.22;;;;;;;17.14;60.12;99838.72;4412931;32;20136;-86
2023/09/11 03:06:08;;;;;;;1.37;0.62;;;;;;;17.22;60.13;99839.13;4438245;32;20105;-85
2023/09/11 03:08:33;;;;;;;0.30;0.30;;;;;;;17.06;60.11;99836.53;4438455;32;20093;-87
2023/09/11 03:11:09;;;;;;;0.20;0.20;;;;;;;16.97;60.12;99837.06;4438141;32;20359;-86
2023/09/11 03:13:35;;;;;;;0.00;0.00;;;;;;;16.95;60.11;99838.91;4438489;32;20170;-86
2023/09/11 03:16:08;;;;;;;0.10;0.10;;;;;;;16.93;60.11;99830.28;4438500;32;20105;-86
2023/09/11 03:18:33;;;;;;;1.40;0.55;;;;;;;17.25;60.13;99828.41;4425314;32;20081;-86
2023/09/11 03:20:59;;;;;;;1.55;0.95;;;;;;;16.96;60.12;99829.25;4412892;32;20146;-86
2023/09/11 03:23:24;;;;;;;0.57;0.28;;;;;;;17.08;60.12;99829.41;4425358;32;20132;-86
2023/09/11 03:25:50;;;;;;;0.98;0.75;;;;;;;16.99;60.11;99829.06;4437976;32;20145;-86
2023/09/11 03:28:15;;;;;;;0.00;0.00;;;;;;;16.91;60.11;99821.62;4411804;32;34655;-86
2023/09/11 03:30:40;;;;;;;0.35;0.35;;;;;;;16.78;60.11;99833.75;4424968;32;35999;-87
2023/09/11 03:33:06;;;;;;;0.10;0.10;;;;;;;16.80;60.11;99829.28;4424840;32;20156;-85
2023/09/11 03:35:31;;;;;;;0.00;0.00;;;;;;;16.88;60.11;99838.44;4425060;32;20117;-87
2023/09/11 03:37:56;;;;;;;0.00;0.00;;;;;;;17.03;60.12;99830.59;4424851;32;28475;-87
2023/09/11 03:40:22;;;;;;;0.62;0.62;;;;;;;16.96;60.11;99834.50;4425104;32;20092;-85
2023/09/11 03:42:48;;;;;;;0.30;0.30;;;;;;;17.13;60.12;99832.63;4424887;32;20157;-85
2023/09/11 03:45:13;;;;;;;1.02;0.62;;;;;;;16.88;60.11;99829.69;4437766;32;28024;-86
2023/09/11 03:47:39;;;;;;;1.15;0.98;;;;;;;16.99;60.11;99829.06;4427083;32;20097;-86
2023/09/11 03:50:05;;;;;;;0.80;0.80;;;;;;;16.93;60.11;99830.28;4432290;32;20361;-85
2023/09/11 03:52:30;;;;;;;0.62;0.62;;;;;;;16.95;60.11;99827.56;4442350;32;20105;-85
2023/09/11 03:54:56;;;;;;;0.13;0.13;;;;;;;16.69;60.09;99827.25;4439479;32;20124;-85
2023/09/11 03:57:22;;;;;;;0.37;0.37;;;;;;;16.75;60.10;99829.53;4428655;32;20108;-85
2023/09/11 03:59:47;;;;;;;2.37;1.33;;;;;;;16.83;60.10;99831.75;4426329;32;28544;-84
2023/09/11 04:02:12;;;;;;;0.28;0.22;;;;;;;16.78;60.11;99821.47;4424610;32;20494;-87
2023/09/11 04:04:38;;;;;;;0.20;0.17;;;;;;;16.75;60.10;99823.41;4444109;32;32892;-85
2023/09/11 04:07:03;;;;;;;0.03;0.03;;;;;;;16.84;60.10;99820.28;4424732;32;20153;-87
2023/09/11 04:09:30;;;;;;;0.52;0.52;;;;;;;16.74;60.10;99821.72;4427057;32;20131;-87
2023/09/11 04:11:56;;;;;;;0.13;0.13;;;;;;;16.75;60.10;99820.78;4427134;32;20163;-86
2023/09/11 04:14:21;;;;;;;0.37;0.37;;;;;;;16.67;60.09;99825.63;4427038;32;20394;-87
2023/09/11 04:16:47;;;;;;;0.60;0.45;;;;;;;16.82;60.10;99811.66;4425917;32;26960;-87
2023/09/11 04:19:12;;;;;;;0.00;0.00;;;;;;;16.73;60.10;99815.63;4426284;32;31798;-86
2023/09/11 04:21:38;;;;;;;0.00;0.00;;;;;;;16.68;60.09;99816.81;4426805;32;20155;-87
2023/09/11 04:24:03;;;;;;;2.00;1.05;;;;;;;16.63;60.10;99814.41;4426930;32;20470;-87
2023/09/11 04:26:29;;;;;;;3.55;1.08;;;;;;;16.66;60.10;99808.16;4439662;32;20085;-87
2023/09/11 04:28:55;;;;;;;0.47;0.47;;;;;;;16.68;60.09;99808.94;4427505;32;20153;-87
2023/09/11 04:31:20;;;;;;;3.30;1.48;;;;;;;16.78;60.09;99815.34;4427020;32;20151;-87
2023/09/11 04:33:46;;;;;;;0.37;0.20;;;;;;;16.74;60.10;99811.22;4439945;32;20195;-87
2023/09/11 04:36:11;;;;;;;0.62;0.43;;;;;;;16.76;60.09;99812.81;4426517;32;20246;-87
2023/09/11 04:38:37;;;;;;;0.20;0.20;;;;;;;16.84;60.10;99809.78;4414349;32;20114;-87
2023/09/11 04:41:02;;;;;;;0.75;0.55;;;;;;;16.88;60.11;99808.66;4413962;32;20101;-86
2023/09/11 04:43:27;;;;;;;0.30;0.30;;;;;;;16.98;60.11;99806.34;4439643;32;21227;-87
2023/09/11 04:45:53;;;;;;;0.75;0.75;;;;;;;17.00;60.10;99805.31;4413207;32;32995;-87
2023/09/11 04:48:18;;;;;;;0.20;0.20;;;;;;;16.99;60.11;99808.88;4439728;32;20438;-87
2023/09/11 04:50:44;;;;;;;0.20;0.13;;;;;;;17.06;60.11;99806.78;4426312;32;22706;-87
2023/09/11 04:53:09;;;;;;;4.00;1.65;;;;;;;17.10;60.12;99803.03;4427102;32;20153;-86
2023/09/11 04:55:34;;;;;;;0.10;0.10;;;;;;;17.23;60.12;99801.34;4426774;32;20108;-86
2023/09/11 04:58:00;;;;;;;0.40;0.40;;;;;;;17.48;60.14;99793.69;4439858;32;20456;-88
2023/09/11 05:00:26;;;;;;;0.47;0.47;;;;;;;17.52;60.14;99801.44;4418712;32;20589;-87
2023/09/11 05:02:51;;;;;;;0.25;0.25;;;;;;;17.54;60.14;99799.56;4429819;32;20129;-87
2023/09/11 05:05:17;;;;;;;0.30;0.30;;;;;;;17.41;60.14;99800.28;4426156;32;20142;-89
2023/09/11 05:07:42;;;;;;;0.50;0.50;;;;;;;17.67;60.14;99795.25;4413272;32;20938;-89
2023/09/11 05:10:08;;;;;;;0.00;0.00;;;;;;;17.74;60.15;99792.19;4426494;32;20184;-89
2023/09/11 05:12:34;;;;;;;0.52;0.45;;;;;;;17.86;60.16;99790.59;4414271;32;20182;-90
2023/09/11 05:14:59;;;;;;;0.10;0.10;;;;;;;17.79;60.15;99792.75;4426301;32;20463;-89
2023/09/11 05:17:25;;;;;;;3.15;1.95;;;;;;;17.86;60.16;99798.47;4418579;32;20398;-90
2023/09/11 05:19:50;;;;;;;1.08;0.98;;;;;;;17.96;60.16;99793.50;4403382;32;20412;-90
2023/09/11 05:22:15;;;;;;;0.25;0.25;;;;;;;18.03;60.17;99797.47;4413568;32;29475;-90
2023/09/11 05:24:41;;;;;;;1.73;0.77;;;;;;;18.18;60.17;99787.72;4426176;32;20434;-90
2023/09/11 05:27:06;;;;;;;0.35;0.30;;;;;;;18.26;60.18;99794.25;4413913;32;20084;-90
2023/09/11 05:29:32;;;;;;;0.40;0.40;;;;;;;18.28;60.18;99799.41;4413105;32;22139;-91
2023/09/11 05:31:57;;;;;;;1.27;0.77;;;;;;;18.47;60.19;99792.03;4426645;32;20108;-89
2023/09/11 05:34:22;;;;;;;0.60;0.60;;;;;;;18.89;60.21;99787.56;4413717;32;20109;-89
2023/09/11 05:36:48;;;;;;;1.33;0.85;;;;;;;18.93;60.22;99786.44;4413494;32;23005;-90
2023/09/11 05:39:13;;;;;;;0.85;0.57;;;;;;;18.95;60.21;99789.84;4413581;32;20156;-90
2023/09/11 05:41:39;;;;;;;0.10;0.10;;;;;;;19.11;60.22;99787.00;4426845;32;20397;-90
2023/09/11 05:44:04;;;;;;;0.95;0.90;;;;;;;19.20;60.22;99783.78;4427046;32;20414;-90
2023/09/11 05:46:30;;;;;;;0.08;0.08;;;;;;;19.26;60.23;99778.91;4411157;32;20370;-90
2023/09/11 05:48:55;;;;;;;0.35;0.35;;;;;;;19.60;60.25;99785.41;4439639;32;20449;-91
2023/09/11 05:51:21;;;;;;;0.20;0.20;;;;;;;19.58;60.25;99781.19;4413798;32;20382;-88
2023/09/11 05:53:46;;;;;;;0.10;0.10;;;;;;;19.81;60.26;99779.59;4426950;32;20140;-91
2023/09/11 05:56:11;;;;;;;0.20;0.20;;;;;;;19.80;60.26;99781.41;4413828;32;20156;-90
2023/09/11 05:58:37;;;;;;;0.60;0.60;;;;;;;19.98;60.27;99784.56;4413920;32;20116;-90
2023/09/11 06:01:03;;;;;;;0.10;0.10;;;;;;;20.06;60.27;99789.28;4426558;32;20158;-90
2023/09/11 06:03:29;;;;;;;0.43;0.43;;;;;;;20.30;60.28;99784.06;4426993;32;20107;-90
2023/09/11 06:05:55;;;;;;;0.25;0.25;;;;;;;20.34;60.29;99786.38;4411130;32;20111;-91
2023/09/11 06:08:20;;;;;;;1.65;1.10;;;;;;;20.52;60.29;99779.78;4439345;32;20150;-90
2023/09/11 06:10:46;;;;;;;0.50;0.50;;;;;;;20.59;60.30;99782.00;4413697;32;20505;-90
2023/09/11 06:13:11;;;;;;;0.10;0.10;;;;;;;20.75;60.31;99778.13;4426595;32;20173;-90
2023/09/11 06:15:37;;;;;;;0.68;0.43;;;;;;;20.99;60.32;99778.09;4413237;32;20168;-90
2023/09/11 06:18:03;;;;;;;0.28;0.28;;;;;;;20.95;60.33;99781.09;4451130;32;20183;-90
2023/09/11 06:20:29;;;;;;;2.05;1.55;;;;;;;21.27;60.34;99773.41;4439140;32;20128;-90
2023/09/11 06:22:55;;;;;;;3.45;1.15;;;;;;;21.28;60.33;99765.34;4413860;32;20119;-91
2023/09/11 06:25:21;;;;;;;0.08;0.08;;;;;;;21.30;60.33;99775.84;4426423;32;20479;-90
2023/09/11 06:27:46;;;;;;;1.67;0.43;;;;;;;21.56;60.36;99769.41;4413570;32;20143;-90
2023/09/11 06:30:12;;;;;;;0.05;0.05;;;;;;;21.62;60.35;99773.37;4426208;32;20137;-91
2023/09/11 06:32:37;;;;;;;0.62;0.62;;;;;;;21.81;60.36;99768.34;4413594;32;20479;-90
2023/09/11 06:35:05;;;;;;;0.85;0.82;;;;;;;22.09;60.38;99767.03;4413346;32;20501;-91
2023/09/11 06:37:31;;;;;;;2.33;0.85;;;;;;;22.35;60.40;99767.59;4414141;32;20105;-91
2023/09/11 06:39:56;;;;;;;0.35;0.35;;;;;;;22.50;60.40;99776.97;4413551;32;20169;-91
2023/09/11 06:42:23;;;;;;;0.40;0.37;;;;;;;22.43;60.40;99773.13;4426407;32;20089;-91
2023/09/11 06:44:50;;;;;;;0.65;0.62;;;;;;;22.71;60.40;99779.69;4406063;32;224365;-90
2023/09/11 06:47:15;;;;;;;0.30;0.25;;;;;;;22.75;60.41;99777.63;4439190;32;20757;-90
2023/09/11 06:49:40;;;;;;;0.50;0.50;;;;;;;23.00;60.42;99773.84;4410619;32;20165;-92
2023/09/11 06:52:06;;;;;;;1.02;0.95;;;;;;;23.31;60.44;99774.75;4409835;32;20167;-91
2023/09/11 06:54:31;;;;;;;1.55;1.27;;;;;;;23.34;60.44;99775.34;4421486;32;20096;-91
2023/09/11 06:56:57;;;;;;;2.25;1.42;;;;;;;23.49;60.45;99767.88;4404747;32;26125;-91
2023/09/11 06:59:22;;;;;;;0.55;0.47;;;;;;;23.72;60.46;99782.75;4408566;32;20127;-92
2023/09/11 07:01:48;;;;;;;1.30;1.20;;;;;;;24.07;60.48;99776.16;4398137;32;20117;-91
2023/09/11 07:04:14;;;;;;;0.50;0.50;;;;;;;24.21;60.49;99778.47;4398097;32;20105;-91
2023/09/11 07:06:39;;;;;;;0.35;0.35;;;;;;;24.26;60.49;99778.91;4410891;32;20114;-92
2023/09/11 07:09:08;;;;;;;0.30;0.30;;;;;;;24.21;60.49;99773.16;4398101;32;20451;-91
2023/09/11 07:11:33;;;;;;;0.52;0.52;;;;;;;24.32;60.49;99781.03;4398112;32;20172;-91
2023/09/11 07:13:59;;;;;;;3.92;1.48;;;;;;;24.71;60.52;99779.31;4397970;32;20093;-91
2023/09/11 07:16:24;;;;;;;0.55;0.55;;;;;;;24.86;60.52;99782.41;4397825;32;20422;-92
2023/09/11 07:18:51;;;;;;;2.25;1.92;;;;;;;24.71;60.51;99781.97;4410270;32;20149;-92
2023/09/11 07:21:16;;;;;;;0.85;0.73;;;;;;;24.89;60.52;99786.63;4397775;32;20105;-92
2023/09/11 07:23:41;;;;;;;1.33;0.98;;;;;;;25.04;60.53;99786.06;4410477;32;20131;-92
2023/09/11 07:26:07;;;;;;;0.17;0.17;;;;;;;25.06;60.53;99786.75;4397633;32;20173;-91
2023/09/11 07:28:34;;;;;;;0.00;0.00;;;;;;;25.41;60.55;99777.34;4410602;32;20113;-92
2023/09/11 07:30:59;;;;;;;0.55;0.55;;;;;;;25.40;60.55;99781.84;4421825;32;20107;-92
2023/09/11 07:33:24;;;;;;;0.60;0.45;;;;;;;25.64;60.56;99778.69;4415009;32;20122;-92
2023/09/11 07:35:50;;;;;;;0.60;0.60;;;;;;;25.76;60.56;99787.37;4440380;32;20136;-92
2023/09/11 07:38:16;;;;;;;0.55;0.55;;;;;;;26.00;60.58;99784.22;4424745;32;20145;-92
2023/09/11 07:40:42;;;;;;;0.70;0.45;;;;;;;26.06;60.58;99788.13;4427847;32;20480;-92
2023/09/11 07:43:08;;;;;;;0.65;0.65;;;;;;;26.25;60.60;99783.53;4414512;32;20177;-92
2023/09/11 07:45:34;;;;;;;0.45;0.37;;;;;;;26.37;60.60;99780.72;4415038;32;20160;-92
2023/09/11 07:47:59;;;;;;;0.20;0.20;;;;;;;26.51;60.61;99781.06;4427730;32;20185;-92
2023/09/11 07:50:25;;;;;;;0.08;0.08;;;;;;;26.66;60.62;99783.19;4414676;32;20410;-92
2023/09/11 07:52:51;;;;;;;1.23;0.77;;;;;;;26.71;60.63;99781.72;4415018;32;20097;-92
2023/09/11 07:55:17;;;;;;;1.35;1.23;;;;;;;26.64;60.62;99783.34;4427855;32;20166;-92
2023/09/11 07:57:43;;;;;;;1.12;0.47;;;;;;;26.73;60.62;99781.59;4412362;32;20098;-92
2023/09/11 08:00:09;;;;;;;0.30;0.30;;;;;;;26.79;60.62;99775.66;4427726;32;20116;-92
2023/09/11 08:02:34;;;;;;;3.65;1.62;;;;;;;26.89;60.63;99779.06;4440247;32;20103;-93
2023/09/11 08:05:00;;;;;;;0.20;0.20;;;;;;;27.29;60.65;99773.28;4427544;32;20109;-91
2023/09/11 08:07:25;;;;;;;0.28;0.20;;;;;;;27.25;60.64;99779.09;4429867;32;20105;-92
2023/09/11 08:09:54;;;;;;;1.35;0.73;;;;;;;27.32;60.65;99772.97;4427093;32;20125;-93
2023/09/11 08:12:20;;;;;;;0.98;0.98;;;;;;;27.57;60.66;99771.31;4411854;32;20154;-92
2023/09/11 08:14:45;;;;;;;1.58;1.02;;;;;;;27.75;60.67;99764.09;4440335;32;20152;-93
2023/09/11 08:17:11;;;;;;;1.98;0.95;;;;;;;27.80;60.68;99768.97;4427078;32;20420;-93
2023/09/11 08:19:36;;;;;;;1.37;1.08;;;;;;;27.99;60.69;99767.91;4414703;32;20177;-93
2023/09/11 08:22:03;;;;;;;0.52;0.52;;;;;;;28.02;60.69;99767.56;4414815;32;20131;-93
2023/09/11 08:24:28;;;;;;;1.05;0.82;;;;;;;28.26;60.69;99770.38;4414823;32;20562;-93
2023/09/11 08:26:54;;;;;;;0.52;0.52;;;;;;;28.38;60.71;99766.38;4414418;32;20101;-93
2023/09/11 08:29:20;;;;;;;1.60;0.47;;;;;;;28.29;60.71;99771.87;4414536;32;20493;-93
2023/09/11 08:31:46;;;;;;;0.13;0.13;;;;;;;28.52;60.70;99766.78;4414864;32;20111;-93
2023/09/11 08:34:11;;;;;;;0.90;0.77;;;;;;;28.45;60.70;99760.41;4414942;32;20105;-93
2023/09/11 08:36:37;;;;;;;0.95;0.90;;;;;;;28.65;60.72;99753.75;4427541;32;20085;-93
2023/09/11 08:39:02;;;;;;;0.40;0.40;;;;;;;28.69;60.72;99757.78;4414370;32;20109;-91
2023/09/11 08:41:28;;;;;;;0.82;0.20;;;;;;;29.07;60.74;99752.78;4414037;32;20099;-92
2023/09/11 08:43:54;;;;;;;1.00;1.00;;;;;;;29.09;60.73;99751.63;4414999;32;20101;-93
2023/09/11 08:46:19;;;;;;;0.85;0.85;;;;;;;29.25;60.76;99748.94;4414273;32;20112;-93
2023/09/11 08:48:46;;;;;;;0.90;0.88;;;;;;;29.49;60.75;99742.72;4427359;32;20107;-93
2023/09/11 08:51:15;;;;;;;1.02;0.70;;;;;;;29.81;60.78;99743.66;4414831;32;20853;-93
2023/09/11 08:53:40;;;;;;;1.55;1.17;;;;;;;29.89;60.78;99736.44;4418106;32;20169;-93
2023/09/11 08:56:06;;;;;;;1.73;1.12;;;;;;;29.86;60.77;99739.47;4404010;32;20151;-94
2023/09/11 08:58:31;;;;;;;0.40;0.32;;;;;;;29.81;60.78;99740.97;4417977;32;20470;-94
2023/09/11 09:00:57;;;;;;;2.62;0.68;;;;;;;30.03;60.78;99736.69;4424804;32;20108;-94
2023/09/11 09:03:24;;;;;;;0.17;0.17;;;;;;;30.21;60.80;99730.09;4399803;32;20133;-94
2023/09/11 09:05:49;;;;;;;2.55;1.33;;;;;;;30.26;60.80;99732.25;4399674;32;20109;-94
2023/09/11 09:08:15;;;;;;;0.52;0.52;;;;;;;30.50;60.80;99732.09;4399732;32;20458;-95
2023/09/11 09:10:41;;;;;;;0.30;0.30;;;;;;;30.68;60.82;99726.47;4400015;32;20602;-95
2023/09/11 09:13:07;;;;;;;1.05;0.68;;;;;;;30.79;60.83;99728.78;4412745;32;20104;-95
2023/09/11 09:15:34;;;;;;;0.82;0.82;;;;;;;30.90;60.82;99722.12;4402206;32;20364;-95
2023/09/11 09:18:00;;;;;;;0.43;0.40;;;;;;;31.10;60.85;99719.75;4407984;32;20977;-96
2023/09/11 09:20:46;;;;;;;0.35;0.30;;;;;;;31.19;60.85;99718.69;4420161;32;20105;-96
2023/09/11 09:23:13;;;;;;;2.40;1.33;;;;;;;31.55;60.86;99724.22;4434636;32;20093;-96
2023/09/11 09:25:50;;;;;;;2.10;1.15;;;;;;;31.64;60.86;99722.28;4400856;32;20151;-96
2023/09/11 09:28:36;;;;;;;0.40;0.40;;;;;;;31.81;60.88;99717.56;4428772;32;20121;-96
2023/09/11 09:31:25;;;;;;;0.93;0.93;;;;;;;31.96;60.89;99719.25;4417868;32;20119;-96
2023/09/11 09:33:55;;;;;;;0.50;0.50;;;;;;;32.21;60.91;99716.22;4416202;32;20105;-96
2023/09/11 09:36:21;;;;;;;1.05;1.00;;;;;;;32.31;60.90;99717.59;4415616;32;20113;-96
2023/09/11 09:38:47;;;;;;;0.57;0.57;;;;;;;32.52;60.92;99724.88;4415447;32;20128;-96
2023/09/11 09:41:12;;;;;;;1.17;1.10;;;;;;;32.60;60.92;99708.59;4415059;32;20093;-95
2023/09/11 09:43:38;;;;;;;1.17;1.08;;;;;;;32.63;60.92;99712.75;4412711;32;20109;-95
2023/09/11 09:46:20;;;;;;;0.20;0.20;;;;;;;32.74;60.92;99711.41;4427288;32;20170;-95
2023/09/11 09:49:07;;;;;;;1.45;0.82;;;;;;;32.97;60.94;99707.53;4415288;32;20181;-95
2023/09/11 09:51:44;;;;;;;10.65;1.48;;;;;;;32.95;60.94;99706.03;4426757;32;20136;-94
2023/09/11 09:54:10;;;;;;;0.80;0.62;;;;;;;33.16;60.95;99697.91;4452700;32;20136;-95
2023/09/11 09:56:35;;;;;;;0.65;0.60;;;;;;;33.20;60.95;99695.66;4414523;32;20485;-95
2023/09/11 09:59:02;;;;;;;7.18;1.17;;;;;;;33.25;60.95;99691.34;4414200;32;20065;-95
2023/09/11 10:01:27;;;;;;;0.60;0.60;;;;;;;33.32;60.94;99696.81;4415068;32;20139;-95
2023/09/11 10:03:53;;;;;;;1.17;0.82;;;;;;;33.58;60.97;99682.63;4414395;32;20147;-95
2023/09/11 10:06:21;;;;;;;1.67;0.88;;;;;;;33.72;60.97;99688.94;4422886;32;20105;-95
2023/09/11 10:08:47;;;;;;;0.95;0.95;;;;;;;33.75;60.98;99683.16;4436152;32;20088;-95
2023/09/11 10:11:30;;;;;;;10.93;1.10;;;;;;;33.85;60.98;99680.97;4418933;32;20157;-94
2023/09/11 10:13:56;;;;;;;0.45;0.37;;;;;;;33.85;60.98;99679.09;4424733;32;20105;-95
2023/09/11 10:16:22;;;;;;;0.35;0.35;;;;;;;33.87;60.98;99670.78;4426597;32;20072;-94
2023/09/11 10:18:48;;;;;;;0.85;0.55;;;;;;;34.00;60.99;99673.50;4413948;32;20207;-95
2023/09/11 10:21:17;;;;;;;0.40;0.40;;;;;;;34.11;60.99;99670.25;4414435;32;20133;-94
2023/09/11 10:23:43;;;;;;;;;;;;;;;34.15;61.00;99663.41;4415484;32;20166;-94
2023/09/11 10:26:08;;;;;;;1.13;0.83;;;;;;;34.23;61.00;99662.38;4426919;32;20004;-94
2023/09/11 10:28:35;;;;;;;1.30;0.93;;;;;;;34.35;61.00;99655.38;4439540;32;20136;-94
2023/09/11 10:31:08;;;;;;;0.47;0.47;;;;;;;34.44;61.02;99646.03;4414108;32;20101;-94
2023/09/11 10:33:34;;;;;;;3.03;0.93;;;;;;;34.46;61.02;99643.94;4426484;32;20521;-94
2023/09/11 10:36:02;;;;;;;0.22;0.22;;;;;;;34.39;61.01;99643.09;4413801;32;20109;-94
2023/09/11 10:38:30;;;;;;;1.10;1.00;;;;;;;34.62;61.03;99647.28;4413966;32;20132;-94
2023/09/11 10:40:57;;;;;;;0.93;0.93;;;;;;;34.75;61.03;99641.88;4413813;32;20121;-95
2023/09/11 10:43:22;;;;;;;1.73;1.62;;;;;;;34.77;61.03;99642.50;4414182;32;20109;-94
2023/09/11 10:45:49;;;;;;;1.12;0.90;;;;;;;34.80;61.03;99627.75;4413429;32;20097;-94
2023/09/11 10:48:27;;;;;;;0.52;0.52;;;;;;;34.78;61.03;99634.19;4413839;32;20088;-95
2023/09/11 10:50:53;;;;;;;0.47;0.45;;;;;;;34.91;61.03;99637.94;4426643;32;20100;-94
2023/09/11 10:53:18;;;;;;;0.57;0.57;;;;;;;35.15;61.05;99640.00;4413378;32;20176;-94
2023/09/11 10:55:44;;;;;;;0.95;0.95;;;;;;;35.16;61.04;99636.25;4413461;32;20090;-94
2023/09/11 10:58:09;;;;;;;1.17;1.08;;;;;;;35.05;61.04;99637.75;4413457;32;20108;-94
2023/09/11 11:00:38;;;;;;;1.15;1.08;;;;;;;35.16;61.06;99630.84;4413603;32;20125;-94
2023/09/11 11:03:04;;;;;;;0.32;0.32;;;;;;;35.26;61.06;99625.84;4413656;32;20113;-95
2023/09/11 11:05:29;;;;;;;1.50;1.02;;;;;;;35.26;61.06;99628.53;4415425;32;20112;-95
2023/09/11 11:07:55;;;;;;;1.80;1.08;;;;;;;35.32;61.06;99619.56;4415494;32;20136;-93
2023/09/11 11:10:20;;;;;;;1.77;0.75;;;;;;;35.36;61.06;99625.41;4414932;32;20100;-94
2023/09/11 11:12:46;;;;;;;4.00;0.82;;;;;;;35.22;61.06;99623.75;4415339;32;20089;-93
2023/09/11 11:15:18;;;;;;;0.80;0.57;;;;;;;35.21;61.06;99613.97;4414983;32;20112;-94
2023/09/11 11:17:43;;;;;;;0.73;0.73;;;;;;;35.36;61.06;99622.72;4427839;32;20105;-94
2023/09/11 11:20:09;;;;;;;1.17;1.00;;;;;;;35.36;61.06;99617.31;4415264;32;20439;-94
2023/09/11 11:22:39;;;;;;;1.92;1.27;;;;;;;35.56;61.07;99618.06;4414970;32;20365;-95
2023/09/11 11:25:08;;;;;;;1.45;1.02;;;;;;;35.43;61.06;99620.81;4428151;32;20065;-94
2023/09/11 11:27:34;;;;;;;1.02;0.73;;;;;;;35.46;61.07;99617.66;4415692;32;20611;-94
2023/09/11 11:30:00;;;;;;;1.75;0.80;;;;;;;35.42;61.07;99618.31;4412151;32;20089;-94
2023/09/11 11:32:25;;;;;;;0.20;0.20;;;;;;;35.40;61.07;99615.81;4427744;32;20165;-94